sensor_id;sensor_type;location;lat;lon;timestamp;temperature;humidity
15690;DHT22;7945;48.816;11.506;2023-07-13T00:01:03;21.60;99.90
15690;DHT22;7945;48.816;11.506;2023-07-13T00:03:30;21.60;99.90
15690;DHT22;7945;48.816;11.506;2023-07-13T00:06:00;21.60;99.90
15690;DHT22;7945;48.816;11.506;2023-07-13T00:08:30;21.60;99.90
15690;DHT22;7945;48.816;11.506;2023-07-13T00:10:58;21.60;99.90
15690;DHT22;7945;48.816;11.506;2023-07-13T00:13:25;21.60;99.90
15690;DHT22;7945;48.816;11.506;2023-07-13T00:15:51;21.60;99.90
15690;DHT22;7945;48.816;11.506;2023-07-13T00:18:19;21.60;99.90
15690;DHT22;7945;48.816;11.506;2023-07-13T00:20:46;21.70;99.90
15690;DHT22;7945;48.816;11.506;2023-07-13T00:23:13;21.60;99.90
15690;DHT22;7945;48.816;11.506;2023-07-13T00:25:41;21.60;99.90
15690;DHT22;7945;48.816;11.506;2023-07-13T00:28:08;21.50;99.90
15690;DHT22;7945;48.816;11.506;2023-07-13T00:30:34;21.50;99.90
15690;DHT22;7945;48.816;11.506;2023-07-13T00:33:01;21.50;99.90
15690;DHT22;7945;48.816;11.506;2023-07-13T00:35:30;21.50;99.90
15690;DHT22;7945;48.816;11.506;2023-07-13T00:37:57;21.50;99.90
15690;DHT22;7945;48.816;11.506;2023-07-13T00:40:24;21.50;99.90
15690;DHT22;7945;48.816;11.506;2023-07-13T00:42:53;21.40;99.90
15690;DHT22;7945;48.816;11.506;2023-07-13T00:48:28;21.40;99.90
15690;DHT22;7945;48.816;11.506;2023-07-13T00:50:58;21.30;99.90
15690;DHT22;7945;48.816;11.506;2023-07-13T00:53:26;21.30;99.90
15690;DHT22;7945;48.816;11.506;2023-07-13T00:55:53;21.20;99.90
15690;DHT22;7945;48.816;11.506;2023-07-13T00:58:23;21.20;99.90
15690;DHT22;7945;48.816;11.506;2023-07-13T01:00:51;21.20;99.90
15690;DHT22;7945;48.816;11.506;2023-07-13T01:03:18;21.30;99.90
15690;DHT22;7945;48.816;11.506;2023-07-13T01:05:47;21.20;99.90
15690;DHT22;7945;48.816;11.506;2023-07-13T01:08:14;21.20;99.90
15690;DHT22;7945;48.816;11.506;2023-07-13T01:10:42;21.20;99.90
15690;DHT22;7945;48.816;11.506;2023-07-13T01:13:16;21.10;99.90
15690;DHT22;7945;48.816;11.506;2023-07-13T01:15:46;21.10;99.90
15690;DHT22;7945;48.816;11.506;2023-07-13T01:18:14;21.50;99.90
15690;DHT22;7945;48.816;11.506;2023-07-13T01:20:50;21.10;99.90
15690;DHT22;7945;48.816;11.506;2023-07-13T01:23:17;21.00;99.90
15690;DHT22;7945;48.816;11.506;2023-07-13T01:25:44;21.00;99.90
15690;DHT22;7945;48.816;11.506;2023-07-13T01:28:11;21.00;99.90
15690;DHT22;7945;48.816;11.506;2023-07-13T01:30:40;21.00;99.90
15690;DHT22;7945;48.816;11.506;2023-07-13T01:33:07;20.90;99.90
15690;DHT22;7945;48.816;11.506;2023-07-13T01:35:35;20.90;99.90
15690;DHT22;7945;48.816;11.506;2023-07-13T01:38:04;20.90;99.90
15690;DHT22;7945;48.816;11.506;2023-07-13T01:40:31;20.90;99.90
15690;DHT22;7945;48.816;11.506;2023-07-13T01:42:58;20.90;99.90
15690;DHT22;7945;48.816;11.506;2023-07-13T01:45:25;20.90;99.90
15690;DHT22;7945;48.816;11.506;2023-07-13T01:47:52;21.00;99.90
15690;DHT22;7945;48.816;11.506;2023-07-13T01:50:19;21.00;99.90
15690;DHT22;7945;48.816;11.506;2023-07-13T01:52:45;21.00;99.90
15690;DHT22;7945;48.816;11.506;2023-07-13T01:55:14;21.00;99.90
15690;DHT22;7945;48.816;11.506;2023-07-13T01:57:40;21.00;99.90
15690;DHT22;7945;48.816;11.506;2023-07-13T02:00:09;21.00;99.90
15690;DHT22;7945;48.816;11.506;2023-07-13T02:02:37;21.00;99.90
15690;DHT22;7945;48.816;11.506;2023-07-13T02:05:05;21.00;99.90
15690;DHT22;7945;48.816;11.506;2023-07-13T02:07:31;21.00;99.90
15690;DHT22;7945;48.816;11.506;2023-07-13T02:09:58;21.00;99.90
15690;DHT22;7945;48.816;11.506;2023-07-13T02:12:26;21.00;99.90
15690;DHT22;7945;48.816;11.506;2023-07-13T02:14:53;21.00;99.90
15690;DHT22;7945;48.816;11.506;2023-07-13T02:17:20;21.10;99.90
15690;DHT22;7945;48.816;11.506;2023-07-13T02:19:47;21.10;99.90
15690;DHT22;7945;48.816;11.506;2023-07-13T02:22:14;21.10;99.90
15690;DHT22;7945;48.816;11.506;2023-07-13T02:24:40;21.10;99.90
15690;DHT22;7945;48.816;11.506;2023-07-13T02:27:07;21.10;99.90
15690;DHT22;7945;48.816;11.506;2023-07-13T02:29:35;21.00;99.90
15690;DHT22;7945;48.816;11.506;2023-07-13T02:32:02;21.00;99.90
15690;DHT22;7945;48.816;11.506;2023-07-13T02:34:29;21.00;99.90
15690;DHT22;7945;48.816;11.506;2023-07-13T02:36:56;20.90;99.90
15690;DHT22;7945;48.816;11.506;2023-07-13T02:39:23;20.90;99.90
15690;DHT22;7945;48.816;11.506;2023-07-13T02:41:49;20.90;99.90
15690;DHT22;7945;48.816;11.506;2023-07-13T02:44:16;20.90;99.90
15690;DHT22;7945;48.816;11.506;2023-07-13T02:46:45;20.80;99.90
15690;DHT22;7945;48.816;11.506;2023-07-13T02:49:11;20.80;99.90
15690;DHT22;7945;48.816;11.506;2023-07-13T02:51:38;20.80;99.90
15690;DHT22;7945;48.816;11.506;2023-07-13T02:54:05;20.80;99.90
15690;DHT22;7945;48.816;11.506;2023-07-13T02:56:34;20.80;99.90
15690;DHT22;7945;48.816;11.506;2023-07-13T02:59:01;20.70;99.90
15690;DHT22;7945;48.816;11.506;2023-07-13T03:01:28;20.70;99.90
15690;DHT22;7945;48.816;11.506;2023-07-13T03:03:56;20.70;99.90
15690;DHT22;7945;48.816;11.506;2023-07-13T03:06:23;20.70;99.90
15690;DHT22;7945;48.816;11.506;2023-07-13T03:08:50;20.60;99.90
15690;DHT22;7945;48.816;11.506;2023-07-13T03:11:18;20.60;99.90
15690;DHT22;7945;48.816;11.506;2023-07-13T03:13:46;20.50;99.90
15690;DHT22;7945;48.816;11.506;2023-07-13T03:16:14;20.50;99.90
15690;DHT22;7945;48.816;11.506;2023-07-13T03:18:41;20.60;99.90
15690;DHT22;7945;48.816;11.506;2023-07-13T03:21:09;20.50;99.90
15690;DHT22;7945;48.816;11.506;2023-07-13T03:23:36;20.50;99.90
15690;DHT22;7945;48.816;11.506;2023-07-13T03:26:05;20.60;99.90
15690;DHT22;7945;48.816;11.506;2023-07-13T03:28:32;20.70;99.90
15690;DHT22;7945;48.816;11.506;2023-07-13T03:31:00;20.70;99.90
15690;DHT22;7945;48.816;11.506;2023-07-13T03:33:27;20.60;99.90
15690;DHT22;7945;48.816;11.506;2023-07-13T03:35:54;20.60;99.90
15690;DHT22;7945;48.816;11.506;2023-07-13T03:38:22;20.50;99.90
15690;DHT22;7945;48.816;11.506;2023-07-13T03:40:49;20.50;99.90
15690;DHT22;7945;48.816;11.506;2023-07-13T03:43:16;20.50;99.90
15690;DHT22;7945;48.816;11.506;2023-07-13T03:45:42;20.50;99.90
15690;DHT22;7945;48.816;11.506;2023-07-13T03:48:09;20.90;99.90
15690;DHT22;7945;48.816;11.506;2023-07-13T03:50:36;20.60;99.90
15690;DHT22;7945;48.816;11.506;2023-07-13T03:53:04;20.60;99.90
15690;DHT22;7945;48.816;11.506;2023-07-13T03:55:32;20.60;99.90
15690;DHT22;7945;48.816;11.506;2023-07-13T03:58:01;20.60;99.90
15690;DHT22;7945;48.816;11.506;2023-07-13T04:00:47;20.70;99.90
15690;DHT22;7945;48.816;11.506;2023-07-13T04:03:13;20.70;99.90
15690;DHT22;7945;48.816;11.506;2023-07-13T04:05:40;20.70;99.90
15690;DHT22;7945;48.816;11.506;2023-07-13T04:08:07;20.70;99.90
15690;DHT22;7945;48.816;11.506;2023-07-13T04:10:35;20.80;99.90
15690;DHT22;7945;48.816;11.506;2023-07-13T04:13:02;20.80;99.90
15690;DHT22;7945;48.816;11.506;2023-07-13T04:15:30;20.80;99.90
15690;DHT22;7945;48.816;11.506;2023-07-13T04:17:57;20.90;99.90
15690;DHT22;7945;48.816;11.506;2023-07-13T04:20:24;20.90;99.90
15690;DHT22;7945;48.816;11.506;2023-07-13T04:22:52;20.90;99.90
15690;DHT22;7945;48.816;11.506;2023-07-13T04:25:20;21.00;99.90
15690;DHT22;7945;48.816;11.506;2023-07-13T04:27:49;20.90;99.90
15690;DHT22;7945;48.816;11.506;2023-07-13T04:30:15;20.90;99.90
15690;DHT22;7945;48.816;11.506;2023-07-13T04:32:42;20.90;99.90
15690;DHT22;7945;48.816;11.506;2023-07-13T04:35:09;20.90;99.90
15690;DHT22;7945;48.816;11.506;2023-07-13T04:37:36;20.90;99.90
15690;DHT22;7945;48.816;11.506;2023-07-13T04:40:03;20.90;99.90
15690;DHT22;7945;48.816;11.506;2023-07-13T04:42:30;20.90;99.90
15690;DHT22;7945;48.816;11.506;2023-07-13T04:44:58;20.80;99.90
15690;DHT22;7945;48.816;11.506;2023-07-13T04:47:25;20.90;99.90
15690;DHT22;7945;48.816;11.506;2023-07-13T04:49:52;20.90;99.90
15690;DHT22;7945;48.816;11.506;2023-07-13T04:52:18;20.90;99.90
15690;DHT22;7945;48.816;11.506;2023-07-13T04:54:45;20.90;99.90
15690;DHT22;7945;48.816;11.506;2023-07-13T04:57:12;21.00;99.90
15690;DHT22;7945;48.816;11.506;2023-07-13T04:59:39;21.00;99.90
15690;DHT22;7945;48.816;11.506;2023-07-13T05:02:07;21.10;99.90
15690;DHT22;7945;48.816;11.506;2023-07-13T05:04:34;21.20;99.90
15690;DHT22;7945;48.816;11.506;2023-07-13T05:07:01;21.30;99.90
15690;DHT22;7945;48.816;11.506;2023-07-13T05:09:27;21.40;99.90
15690;DHT22;7945;48.816;11.506;2023-07-13T05:11:54;21.40;99.90
15690;DHT22;7945;48.816;11.506;2023-07-13T05:14:21;21.60;99.90
15690;DHT22;7945;48.816;11.506;2023-07-13T05:16:48;21.50;99.90
15690;DHT22;7945;48.816;11.506;2023-07-13T05:19:16;21.50;99.90
15690;DHT22;7945;48.816;11.506;2023-07-13T05:21:42;21.40;99.90
15690;DHT22;7945;48.816;11.506;2023-07-13T05:24:09;21.30;99.90
15690;DHT22;7945;48.816;11.506;2023-07-13T05:26:36;21.30;99.90
15690;DHT22;7945;48.816;11.506;2023-07-13T05:29:02;21.40;99.90
15690;DHT22;7945;48.816;11.506;2023-07-13T05:31:29;21.50;99.90
15690;DHT22;7945;48.816;11.506;2023-07-13T05:33:56;21.60;99.90
15690;DHT22;7945;48.816;11.506;2023-07-13T05:36:24;21.80;99.90
15690;DHT22;7945;48.816;11.506;2023-07-13T05:38:51;22.00;99.90
15690;DHT22;7945;48.816;11.506;2023-07-13T05:41:18;21.90;99.90
15690;DHT22;7945;48.816;11.506;2023-07-13T05:43:44;21.80;99.90
15690;DHT22;7945;48.816;11.506;2023-07-13T05:46:11;21.80;99.90
15690;DHT22;7945;48.816;11.506;2023-07-13T05:48:38;21.80;99.90
15690;DHT22;7945;48.816;11.506;2023-07-13T05:51:05;21.90;99.90
15690;DHT22;7945;48.816;11.506;2023-07-13T05:53:34;22.30;99.90
15690;DHT22;7945;48.816;11.506;2023-07-13T05:56:01;23.00;99.90
15690;DHT22;7945;48.816;11.506;2023-07-13T05:58:27;23.40;99.70
15690;DHT22;7945;48.816;11.506;2023-07-13T06:00:59;24.10;98.80
15690;DHT22;7945;48.816;11.506;2023-07-13T06:03:27;25.00;97.10
15690;DHT22;7945;48.816;11.506;2023-07-13T06:05:53;25.60;96.40
15690;DHT22;7945;48.816;11.506;2023-07-13T06:08:20;25.70;95.90
15690;DHT22;7945;48.816;11.506;2023-07-13T06:10:48;25.70;95.50
15690;DHT22;7945;48.816;11.506;2023-07-13T06:15:34;25.90;93.50
15690;DHT22;7945;48.816;11.506;2023-07-13T06:18:00;25.80;94.90
15690;DHT22;7945;48.816;11.506;2023-07-13T06:20:27;25.70;94.70
15690;DHT22;7945;48.816;11.506;2023-07-13T06:22:54;25.50;94.70
15690;DHT22;7945;48.816;11.506;2023-07-13T06:25:21;25.40;94.80
15690;DHT22;7945;48.816;11.506;2023-07-13T06:27:48;25.30;94.90
15690;DHT22;7945;48.816;11.506;2023-07-13T06:30:14;25.30;94.90
15690;DHT22;7945;48.816;11.506;2023-07-13T06:32:42;25.10;94.40
15690;DHT22;7945;48.816;11.506;2023-07-13T06:35:09;25.10;94.70
15690;DHT22;7945;48.816;11.506;2023-07-13T06:37:38;25.00;94.20
15690;DHT22;7945;48.816;11.506;2023-07-13T06:40:05;24.90;94.00
15690;DHT22;7945;48.816;11.506;2023-07-13T06:42:32;24.60;94.00
15690;DHT22;7945;48.816;11.506;2023-07-13T06:44:59;24.40;94.30
15690;DHT22;7945;48.816;11.506;2023-07-13T06:47:27;24.20;94.50
15690;DHT22;7945;48.816;11.506;2023-07-13T06:49:55;24.20;94.90
15690;DHT22;7945;48.816;11.506;2023-07-13T06:52:21;24.10;94.90
15690;DHT22;7945;48.816;11.506;2023-07-13T06:54:48;24.20;95.00
15690;DHT22;7945;48.816;11.506;2023-07-13T06:57:15;24.30;95.00
15690;DHT22;7945;48.816;11.506;2023-07-13T06:59:42;24.40;94.80
15690;DHT22;7945;48.816;11.506;2023-07-13T07:02:09;24.40;94.50
15690;DHT22;7945;48.816;11.506;2023-07-13T07:04:37;24.40;94.40
15690;DHT22;7945;48.816;11.506;2023-07-13T07:07:05;24.40;94.20
15690;DHT22;7945;48.816;11.506;2023-07-13T07:09:32;24.20;93.90
15690;DHT22;7945;48.816;11.506;2023-07-13T07:11:58;23.90;94.00
15690;DHT22;7945;48.816;11.506;2023-07-13T07:14:25;23.70;94.30
15690;DHT22;7945;48.816;11.506;2023-07-13T07:16:52;23.60;94.50
15690;DHT22;7945;48.816;11.506;2023-07-13T07:19:19;23.50;94.70
15690;DHT22;7945;48.816;11.506;2023-07-13T07:21:45;23.40;94.70
15690;DHT22;7945;48.816;11.506;2023-07-13T07:24:13;23.20;95.00
15690;DHT22;7945;48.816;11.506;2023-07-13T07:26:41;23.20;95.10
15690;DHT22;7945;48.816;11.506;2023-07-13T07:29:08;23.00;94.70
15690;DHT22;7945;48.816;11.506;2023-07-13T07:31:34;23.00;94.80
15690;DHT22;7945;48.816;11.506;2023-07-13T07:34:02;23.10;94.90
15690;DHT22;7945;48.816;11.506;2023-07-13T07:36:29;23.70;94.90
15690;DHT22;7945;48.816;11.506;2023-07-13T07:38:56;23.20;94.40
15690;DHT22;7945;48.816;11.506;2023-07-13T07:41:24;23.20;94.10
15690;DHT22;7945;48.816;11.506;2023-07-13T07:43:51;23.20;94.20
15690;DHT22;7945;48.816;11.506;2023-07-13T07:46:17;23.10;94.20
15690;DHT22;7945;48.816;11.506;2023-07-13T07:48:44;23.30;94.00
15690;DHT22;7945;48.816;11.506;2023-07-13T07:51:11;23.40;94.10
15690;DHT22;7945;48.816;11.506;2023-07-13T07:53:38;23.60;94.00
15690;DHT22;7945;48.816;11.506;2023-07-13T07:56:04;23.70;93.90
15690;DHT22;7945;48.816;11.506;2023-07-13T07:58:32;23.80;94.20
15690;DHT22;7945;48.816;11.506;2023-07-13T08:01:03;23.80;93.90
15690;DHT22;7945;48.816;11.506;2023-07-13T08:03:30;23.80;94.30
15690;DHT22;7945;48.816;11.506;2023-07-13T08:05:57;23.80;93.80
15690;DHT22;7945;48.816;11.506;2023-07-13T08:08:24;23.70;93.50
15690;DHT22;7945;48.816;11.506;2023-07-13T08:10:51;23.60;93.60
15690;DHT22;7945;48.816;11.506;2023-07-13T08:13:18;23.50;93.60
15690;DHT22;7945;48.816;11.506;2023-07-13T08:15:46;23.50;93.70
15690;DHT22;7945;48.816;11.506;2023-07-13T08:18:13;23.50;93.60
15690;DHT22;7945;48.816;11.506;2023-07-13T08:20:40;23.50;93.00
15690;DHT22;7945;48.816;11.506;2023-07-13T08:23:09;23.70;92.60
15690;DHT22;7945;48.816;11.506;2023-07-13T08:25:36;23.60;92.30
15690;DHT22;7945;48.816;11.506;2023-07-13T08:28:04;23.70;92.50
15690;DHT22;7945;48.816;11.506;2023-07-13T08:30:31;23.90;92.60
15690;DHT22;7945;48.816;11.506;2023-07-13T08:32:59;24.00;92.30
15690;DHT22;7945;48.816;11.506;2023-07-13T08:35:25;24.00;92.20
15690;DHT22;7945;48.816;11.506;2023-07-13T08:37:52;24.30;92.20
15690;DHT22;7945;48.816;11.506;2023-07-13T08:40:23;23.90;92.00
15690;DHT22;7945;48.816;11.506;2023-07-13T08:42:54;24.00;91.90
15690;DHT22;7945;48.816;11.506;2023-07-13T08:45:24;24.00;92.20
15690;DHT22;7945;48.816;11.506;2023-07-13T08:47:54;24.10;91.80
15690;DHT22;7945;48.816;11.506;2023-07-13T08:53:09;24.10;91.00
15690;DHT22;7945;48.816;11.506;2023-07-13T08:55:37;24.10;90.20
15690;DHT22;7945;48.816;11.506;2023-07-13T08:58:09;24.10;90.00
15690;DHT22;7945;48.816;11.506;2023-07-13T09:00:43;24.00;89.80
15690;DHT22;7945;48.816;11.506;2023-07-13T09:03:18;24.10;88.90
15690;DHT22;7945;48.816;11.506;2023-07-13T09:05:51;24.00;88.90
15690;DHT22;7945;48.816;11.506;2023-07-13T09:08:38;24.10;89.20
15690;DHT22;7945;48.816;11.506;2023-07-13T09:11:28;24.20;89.20
15690;DHT22;7945;48.816;11.506;2023-07-13T09:14:05;24.10;87.40
15690;DHT22;7945;48.816;11.506;2023-07-13T09:16:33;24.10;85.30
15690;DHT22;7945;48.816;11.506;2023-07-13T09:19:06;24.10;83.90
15690;DHT22;7945;48.816;11.506;2023-07-13T09:21:38;24.20;81.50
15690;DHT22;7945;48.816;11.506;2023-07-13T09:24:29;24.30;80.20
15690;DHT22;7945;48.816;11.506;2023-07-13T09:27:00;24.40;79.00
15690;DHT22;7945;48.816;11.506;2023-07-13T09:29:30;24.40;80.20
15690;DHT22;7945;48.816;11.506;2023-07-13T09:32:02;24.50;80.30
15690;DHT22;7945;48.816;11.506;2023-07-13T09:34:30;24.40;78.60
15690;DHT22;7945;48.816;11.506;2023-07-13T09:37:00;24.50;79.20
15690;DHT22;7945;48.816;11.506;2023-07-13T09:39:29;24.60;78.80
15690;DHT22;7945;48.816;11.506;2023-07-13T09:42:01;24.70;78.90
15690;DHT22;7945;48.816;11.506;2023-07-13T09:44:34;24.90;77.90
15690;DHT22;7945;48.816;11.506;2023-07-13T09:47:01;24.90;77.20
15690;DHT22;7945;48.816;11.506;2023-07-13T09:49:31;25.20;77.20
15690;DHT22;7945;48.816;11.506;2023-07-13T09:52:03;25.40;77.80
15690;DHT22;7945;48.816;11.506;2023-07-13T09:54:33;25.60;76.40
15690;DHT22;7945;48.816;11.506;2023-07-13T09:57:01;25.60;76.00
15690;DHT22;7945;48.816;11.506;2023-07-13T09:59:30;25.70;75.70
15690;DHT22;7945;48.816;11.506;2023-07-13T10:01:57;25.50;75.50
15690;DHT22;7945;48.816;11.506;2023-07-13T10:04:29;25.50;75.30
15690;DHT22;7945;48.816;11.506;2023-07-13T10:07:07;25.40;75.40
15690;DHT22;7945;48.816;11.506;2023-07-13T10:09:34;25.40;74.50
15690;DHT22;7945;48.816;11.506;2023-07-13T10:12:01;25.80;74.60
15690;DHT22;7945;48.816;11.506;2023-07-13T10:14:29;25.40;74.30
15690;DHT22;7945;48.816;11.506;2023-07-13T10:16:59;25.30;74.90
15690;DHT22;7945;48.816;11.506;2023-07-13T10:19:31;25.30;74.40
15690;DHT22;7945;48.816;11.506;2023-07-13T10:22:00;25.30;73.40
15690;DHT22;7945;48.816;11.506;2023-07-13T10:24:33;25.30;73.80
15690;DHT22;7945;48.816;11.506;2023-07-13T10:27:02;25.20;73.00
15690;DHT22;7945;48.816;11.506;2023-07-13T10:29:37;25.60;73.40
15690;DHT22;7945;48.816;11.506;2023-07-13T10:32:09;25.70;72.40
15690;DHT22;7945;48.816;11.506;2023-07-13T10:34:36;25.70;70.90
15690;DHT22;7945;48.816;11.506;2023-07-13T10:37:05;25.60;72.50
15690;DHT22;7945;48.816;11.506;2023-07-13T10:39:35;25.70;70.70
15690;DHT22;7945;48.816;11.506;2023-07-13T10:42:05;25.90;69.80
15690;DHT22;7945;48.816;11.506;2023-07-13T10:44:33;26.00;69.90
15690;DHT22;7945;48.816;11.506;2023-07-13T10:47:02;26.20;69.90
15690;DHT22;7945;48.816;11.506;2023-07-13T10:49:32;26.50;69.80
15690;DHT22;7945;48.816;11.506;2023-07-13T10:52:00;26.60;70.00
15690;DHT22;7945;48.816;11.506;2023-07-13T10:54:30;26.80;69.10
15690;DHT22;7945;48.816;11.506;2023-07-13T10:57:16;26.90;68.00
15690;DHT22;7945;48.816;11.506;2023-07-13T10:59:43;27.00;66.60
15690;DHT22;7945;48.816;11.506;2023-07-13T11:02:23;27.00;67.40
15690;DHT22;7945;48.816;11.506;2023-07-13T11:04:53;27.00;66.20
15690;DHT22;7945;48.816;11.506;2023-07-13T11:07:22;27.10;66.10
15690;DHT22;7945;48.816;11.506;2023-07-13T11:09:50;27.00;66.10
15690;DHT22;7945;48.816;11.506;2023-07-13T11:12:52;27.10;66.20
15690;DHT22;7945;48.816;11.506;2023-07-13T11:15:42;27.20;64.70
15690;DHT22;7945;48.816;11.506;2023-07-13T11:18:20;27.20;64.70
15690;DHT22;7945;48.816;11.506;2023-07-13T11:20:49;27.30;65.20
15690;DHT22;7945;48.816;11.506;2023-07-13T11:23:31;27.30;64.80
15690;DHT22;7945;48.816;11.506;2023-07-13T11:25:58;27.30;64.50
15690;DHT22;7945;48.816;11.506;2023-07-13T11:28:31;27.20;65.10
15690;DHT22;7945;48.816;11.506;2023-07-13T11:31:15;27.20;65.70
15690;DHT22;7945;48.816;11.506;2023-07-13T11:33:56;27.20;64.40
15690;DHT22;7945;48.816;11.506;2023-07-13T11:36:35;27.30;62.80
15690;DHT22;7945;48.816;11.506;2023-07-13T11:39:05;27.30;64.00
15690;DHT22;7945;48.816;11.506;2023-07-13T11:41:43;27.50;64.30
15690;DHT22;7945;48.816;11.506;2023-07-13T11:44:15;27.40;63.80
15690;DHT22;7945;48.816;11.506;2023-07-13T11:46:46;27.40;63.40
15690;DHT22;7945;48.816;11.506;2023-07-13T11:49:16;27.40;68.10
15690;DHT22;7945;48.816;11.506;2023-07-13T11:51:44;27.40;65.00
15690;DHT22;7945;48.816;11.506;2023-07-13T11:54:20;27.50;64.70
15690;DHT22;7945;48.816;11.506;2023-07-13T11:56:49;27.70;63.50
15690;DHT22;7945;48.816;11.506;2023-07-13T11:59:18;27.70;63.20
15690;DHT22;7945;48.816;11.506;2023-07-13T12:01:50;27.60;64.70
15690;DHT22;7945;48.816;11.506;2023-07-13T12:04:21;27.50;63.20
15690;DHT22;7945;48.816;11.506;2023-07-13T12:06:56;27.50;63.40
15690;DHT22;7945;48.816;11.506;2023-07-13T12:09:26;27.50;62.90
15690;DHT22;7945;48.816;11.506;2023-07-13T12:11:53;27.60;62.20
15690;DHT22;7945;48.816;11.506;2023-07-13T12:14:21;27.60;62.60
15690;DHT22;7945;48.816;11.506;2023-07-13T12:16:50;27.50;62.60
15690;DHT22;7945;48.816;11.506;2023-07-13T12:19:20;27.40;62.50
15690;DHT22;7945;48.816;11.506;2023-07-13T12:21:48;27.40;62.00
15690;DHT22;7945;48.816;11.506;2023-07-13T12:24:17;27.50;61.60
15690;DHT22;7945;48.816;11.506;2023-07-13T12:26:44;27.70;61.90
15690;DHT22;7945;48.816;11.506;2023-07-13T12:29:16;27.80;62.30
15690;DHT22;7945;48.816;11.506;2023-07-13T12:31:46;27.80;61.70
15690;DHT22;7945;48.816;11.506;2023-07-13T12:34:16;27.80;61.70
15690;DHT22;7945;48.816;11.506;2023-07-13T12:36:46;27.80;61.10
15690;DHT22;7945;48.816;11.506;2023-07-13T12:39:18;27.90;60.80
15690;DHT22;7945;48.816;11.506;2023-07-13T12:41:45;28.00;59.70
15690;DHT22;7945;48.816;11.506;2023-07-13T12:44:14;28.20;59.10
15690;DHT22;7945;48.816;11.506;2023-07-13T12:46:52;28.40;58.90
15690;DHT22;7945;48.816;11.506;2023-07-13T12:49:24;28.40;58.00
15690;DHT22;7945;48.816;11.506;2023-07-13T12:51:56;28.40;57.70
15690;DHT22;7945;48.816;11.506;2023-07-13T12:54:25;28.40;57.90
15690;DHT22;7945;48.816;11.506;2023-07-13T12:56:53;28.30;58.10
15690;DHT22;7945;48.816;11.506;2023-07-13T12:59:23;28.20;58.50
15690;DHT22;7945;48.816;11.506;2023-07-13T13:01:53;28.30;57.70
15690;DHT22;7945;48.816;11.506;2023-07-13T13:04:20;28.20;57.60
15690;DHT22;7945;48.816;11.506;2023-07-13T13:06:48;28.30;57.40
15690;DHT22;7945;48.816;11.506;2023-07-13T13:09:17;28.30;57.80
15690;DHT22;7945;48.816;11.506;2023-07-13T13:11:45;28.30;56.60
15690;DHT22;7945;48.816;11.506;2023-07-13T13:14:12;28.30;56.10
15690;DHT22;7945;48.816;11.506;2023-07-13T13:16:46;28.20;56.60
15690;DHT22;7945;48.816;11.506;2023-07-13T13:19:17;28.30;56.90
15690;DHT22;7945;48.816;11.506;2023-07-13T13:21:45;28.30;57.00
15690;DHT22;7945;48.816;11.506;2023-07-13T13:24:13;28.10;56.60
15690;DHT22;7945;48.816;11.506;2023-07-13T13:26:40;28.00;57.40
15690;DHT22;7945;48.816;11.506;2023-07-13T13:29:12;28.00;56.90
15690;DHT22;7945;48.816;11.506;2023-07-13T13:31:40;28.00;56.90
15690;DHT22;7945;48.816;11.506;2023-07-13T13:34:09;28.00;56.80
15690;DHT22;7945;48.816;11.506;2023-07-13T13:36:38;28.00;56.90
15690;DHT22;7945;48.816;11.506;2023-07-13T13:39:18;28.00;56.80
15690;DHT22;7945;48.816;11.506;2023-07-13T13:41:45;28.00;57.50
15690;DHT22;7945;48.816;11.506;2023-07-13T13:44:17;28.00;57.10
15690;DHT22;7945;48.816;11.506;2023-07-13T13:46:45;28.10;56.70
15690;DHT22;7945;48.816;11.506;2023-07-13T13:49:15;28.00;56.20
15690;DHT22;7945;48.816;11.506;2023-07-13T13:51:44;28.00;56.10
15690;DHT22;7945;48.816;11.506;2023-07-13T13:54:12;28.00;55.80
15690;DHT22;7945;48.816;11.506;2023-07-13T13:56:42;27.90;55.30
15690;DHT22;7945;48.816;11.506;2023-07-13T13:59:09;27.90;55.00
15690;DHT22;7945;48.816;11.506;2023-07-13T14:01:36;27.90;55.00
15690;DHT22;7945;48.816;11.506;2023-07-13T14:04:04;27.80;54.90
15690;DHT22;7945;48.816;11.506;2023-07-13T14:06:32;27.90;55.00
15690;DHT22;7945;48.816;11.506;2023-07-13T14:09:01;27.80;54.20
15690;DHT22;7945;48.816;11.506;2023-07-13T14:11:30;27.70;54.30
15690;DHT22;7945;48.816;11.506;2023-07-13T14:13:59;27.70;55.00
15690;DHT22;7945;48.816;11.506;2023-07-13T14:16:29;27.80;54.60
15690;DHT22;7945;48.816;11.506;2023-07-13T14:18:57;27.80;53.80
15690;DHT22;7945;48.816;11.506;2023-07-13T14:21:26;27.90;53.80
15690;DHT22;7945;48.816;11.506;2023-07-13T14:23:53;28.00;54.10
15690;DHT22;7945;48.816;11.506;2023-07-13T14:26:23;28.00;53.90
15690;DHT22;7945;48.816;11.506;2023-07-13T14:28:52;28.10;53.70
15690;DHT22;7945;48.816;11.506;2023-07-13T14:31:21;28.00;53.10
15690;DHT22;7945;48.816;11.506;2023-07-13T14:33:48;28.00;53.60
15690;DHT22;7945;48.816;11.506;2023-07-13T14:36:25;27.90;53.30
15690;DHT22;7945;48.816;11.506;2023-07-13T14:38:52;28.00;53.20
15690;DHT22;7945;48.816;11.506;2023-07-13T14:41:20;28.10;53.40
15690;DHT22;7945;48.816;11.506;2023-07-13T14:43:48;28.30;52.60
15690;DHT22;7945;48.816;11.506;2023-07-13T14:46:24;28.40;51.90
15690;DHT22;7945;48.816;11.506;2023-07-13T14:49:00;28.40;51.90
15690;DHT22;7945;48.816;11.506;2023-07-13T14:51:27;28.30;52.10
15690;DHT22;7945;48.816;11.506;2023-07-13T14:53:54;28.10;52.80
15690;DHT22;7945;48.816;11.506;2023-07-13T14:56:20;27.90;53.30
15690;DHT22;7945;48.816;11.506;2023-07-13T14:58:49;27.70;53.40
15690;DHT22;7945;48.816;11.506;2023-07-13T15:01:16;27.70;53.50
15690;DHT22;7945;48.816;11.506;2023-07-13T15:03:45;27.80;53.00
15690;DHT22;7945;48.816;11.506;2023-07-13T15:06:13;27.90;52.00
15690;DHT22;7945;48.816;11.506;2023-07-13T15:08:40;27.80;52.20
15690;DHT22;7945;48.816;11.506;2023-07-13T15:11:07;27.80;52.40
15690;DHT22;7945;48.816;11.506;2023-07-13T15:13:37;27.80;52.60
15690;DHT22;7945;48.816;11.506;2023-07-13T15:16:11;27.60;52.60
15690;DHT22;7945;48.816;11.506;2023-07-13T15:18:40;27.60;53.60
15690;DHT22;7945;48.816;11.506;2023-07-13T15:21:09;27.60;53.40
15690;DHT22;7945;48.816;11.506;2023-07-13T15:23:39;27.60;52.50
15690;DHT22;7945;48.816;11.506;2023-07-13T15:26:09;27.50;53.30
15690;DHT22;7945;48.816;11.506;2023-07-13T15:28:37;27.40;53.80
15690;DHT22;7945;48.816;11.506;2023-07-13T15:31:18;27.40;54.20
15690;DHT22;7945;48.816;11.506;2023-07-13T15:33:45;27.30;54.10
15690;DHT22;7945;48.816;11.506;2023-07-13T15:36:13;27.20;54.00
15690;DHT22;7945;48.816;11.506;2023-07-13T15:38:40;27.20;53.80
15690;DHT22;7945;48.816;11.506;2023-07-13T15:41:15;27.20;53.40
15690;DHT22;7945;48.816;11.506;2023-07-13T15:43:42;27.30;53.20
15690;DHT22;7945;48.816;11.506;2023-07-13T15:46:12;27.40;53.30
15690;DHT22;7945;48.816;11.506;2023-07-13T15:48:39;27.60;53.40